Time;durP1;ratioP1;P1;durP2;ratioP2;P2;SDS_P1;SDS_P2;PMS_P1;PMS_P2;Temp;Humidity;BMP_temperature;BMP_pressure;BME280_temperature;BME280_humidity;BME280_pressure;Samples;Min_cycle;Max_cycle;Signal;HPM_P1;HPM_P2
2021/09/28 00:00:27;;;;;;;5.03;1.20;;;13.70;99.90;;;;;;4993029;28;20544;-92
2021/09/28 00:03:00;;;;;;;6.13;1.30;;;13.60;99.90;;;;;;4986810;28;20866;-91
2021/09/28 00:05:32;;;;;;;4.93;1.40;;;13.60;99.90;;;;;;4988938;28;20219;-90
2021/09/28 00:08:05;;;;;;;3.93;1.37;;;13.60;99.90;;;;;;4983388;28;20203;-91
2021/09/28 00:10:37;;;;;;;2.07;1.30;;;13.50;99.90;;;;;;4973565;28;20242;-90
2021/09/28 00:13:10;;;;;;;3.00;1.30;;;13.60;99.90;;;;;;4958853;29;20212;-92
2021/09/28 00:15:43;;;;;;;2.63;1.20;;;13.60;99.90;;;;;;4968629;28;20523;-92
2021/09/28 00:18:15;;;;;;;3.20;1.00;;;13.70;99.90;;;;;;4958688;29;20577;-92
2021/09/28 00:20:46;;;;;;;3.23;1.17;;;13.70;99.90;;;;;;4965843;28;20227;-92
2021/09/28 00:23:18;;;;;;;3.23;1.37;;;13.70;99.90;;;;;;4969143;28;20250;-92
2021/09/28 00:25:50;;;;;;;3.73;1.17;;;13.80;99.90;;;;;;4985232;28;20195;-93
2021/09/28 00:28:24;;;;;;;3.37;1.27;;;13.90;99.90;;;;;;4991329;28;20211;-92
2021/09/28 00:31:00;;;;;;;5.37;1.20;;;13.80;99.90;;;;;;4998065;28;20214;-91
2021/09/28 00:33:31;;;;;;;2.53;1.00;;;13.80;99.90;;;;;;4998370;28;20214;-91
2021/09/28 00:36:04;;;;;;;3.00;1.30;;;13.80;99.90;;;;;;4999798;28;20182;-90
2021/09/28 00:38:37;;;;;;;6.17;1.57;;;13.80;99.90;;;;;;5010063;28;20198;-93
2021/09/28 00:41:09;;;;;;;4.60;1.20;;;13.90;99.90;;;;;;5012747;28;20227;-92
2021/09/28 00:43:51;;;;;;;3.33;1.40;;;13.90;99.90;;;;;;5007233;28;20309;-92
2021/09/28 00:46:28;;;;;;;2.57;1.10;;;13.80;99.90;;;;;;5016317;28;20194;-92
2021/09/28 00:49:02;;;;;;;4.60;1.23;;;13.80;99.90;;;;;;5011769;28;20222;-92
2021/09/28 00:51:39;;;;;;;4.17;1.20;;;13.70;99.90;;;;;;5010044;28;20225;-93
2021/09/28 00:54:11;;;;;;;1.53;0.90;;;13.70;99.90;;;;;;5017165;28;20218;-93
2021/09/28 00:56:45;;;;;;;2.63;1.07;;;13.70;99.90;;;;;;5015049;28;20202;-93
2021/09/28 00:59:19;;;;;;;2.77;1.43;;;13.70;99.90;;;;;;5018205;28;20235;-93
2021/09/28 01:01:54;;;;;;;5.03;1.30;;;13.70;99.90;;;;;;5012515;28;20202;-92
2021/09/28 01:04:28;;;;;;;2.47;1.50;;;13.70;99.90;;;;;;5012300;28;20230;-92
2021/09/28 01:07:01;;;;;;;3.33;1.20;;;13.70;99.90;;;;;;5012908;28;20222;-91
2021/09/28 01:09:34;;;;;;;2.83;1.60;;;13.70;99.90;;;;;;5014326;28;20210;-94
2021/09/28 01:12:07;;;;;;;2.30;1.00;;;13.70;99.90;;;;;;5015594;28;20272;-92
2021/09/28 01:14:41;;;;;;;4.40;1.30;;;13.70;99.90;;;;;;5013810;28;20234;-94
2021/09/28 01:17:15;;;;;;;3.03;1.37;;;13.70;99.90;;;;;;5011996;28;20244;-93
2021/09/28 01:22:44;;;;;;;2.30;1.20;;;13.70;99.90;;;;;;4999433;28;20199;-92
2021/09/28 01:25:16;;;;;;;3.60;1.10;;;13.70;99.90;;;;;;4993608;28;20720;-92
2021/09/28 01:27:47;;;;;;;2.63;1.17;;;13.60;99.90;;;;;;4992460;28;20262;-95
2021/09/28 01:30:19;;;;;;;2.37;0.93;;;13.60;99.90;;;;;;4998150;28;20202;-93
2021/09/28 01:32:58;;;;;;;2.10;1.13;;;13.60;99.90;;;;;;4996557;28;20210;-93
2021/09/28 01:35:29;;;;;;;2.60;1.00;;;13.60;99.90;;;;;;4982142;28;20263;-94
2021/09/28 01:38:19;;;;;;;4.57;1.50;;;13.60;99.90;;;;;;4987137;28;20207;-96
2021/09/28 01:40:53;;;;;;;1.23;0.93;;;13.60;99.90;;;;;;4984124;28;20211;-92
2021/09/28 01:43:26;;;;;;;4.00;1.57;;;13.50;99.90;;;;;;4974570;28;20679;-94
2021/09/28 01:48:49;;;;;;;2.07;1.20;;;13.40;99.90;;;;;;5065089;23;20246;-93
2021/09/28 01:51:26;;;;;;;4.43;1.13;;;13.40;99.90;;;;;;4994779;28;20233;-94
2021/09/28 01:54:06;;;;;;;1.50;0.87;;;13.30;99.90;;;;;;4993876;28;20211;-94
2021/09/28 01:56:43;;;;;;;3.07;0.73;;;13.40;99.90;;;;;;4996897;28;20244;-93
2021/09/28 01:59:22;;;;;;;3.47;1.20;;;13.30;99.90;;;;;;5020506;23;20243;-90
2021/09/28 02:02:00;;;;;;;2.97;1.30;;;13.20;99.90;;;;;;4976500;28;20210;-96
2021/09/28 02:07:17;;;;;;;2.20;1.27;;;13.10;99.90;;;;;;5034902;23;20290;-96
2021/09/28 02:09:59;;;;;;;3.63;1.70;;;13.00;99.90;;;;;;4995112;28;20257;-96
2021/09/28 02:12:35;;;;;;;2.80;1.23;;;13.00;99.90;;;;;;4997147;28;20211;-96
2021/09/28 02:15:12;;;;;;;2.30;0.80;;;12.90;99.90;;;;;;4994809;28;20202;-96
2021/09/28 02:17:44;;;;;;;2.13;0.83;;;12.90;99.90;;;;;;4994769;28;20207;-96
2021/09/28 02:23:23;;;;;;;1.53;0.70;;;12.80;99.90;;;;;;4995068;28;20183;-94
2021/09/28 02:26:12;;;;;;;4.07;0.80;;;12.70;99.90;;;;;;4994862;28;20199;-96
2021/09/28 02:29:01;;;;;;;2.37;0.80;;;12.60;99.90;;;;;;4996329;28;20270;-96
2021/09/28 02:31:36;;;;;;;2.60;1.10;;;12.50;99.90;;;;;;4997083;28;20253;-96
2021/09/28 02:36:58;;;;;;;2.60;1.20;;;12.30;99.90;;;;;;4997037;23;20245;-96
2021/09/28 02:42:24;;;;;;;2.67;1.03;;;12.00;99.90;;;;;;5112835;23;20231;-96
2021/09/28 03:03:17;;;;;;;3.87;0.80;;;11.60;99.90;;;;;;4993817;28;20273;-96
2021/09/28 03:09:51;;;;;;;2.87;0.80;;;11.30;99.90;;;;;;4993844;28;20214;-96
2021/09/28 03:39:15;;;;;;;5.50;1.30;;;11.00;99.90;;;;;;5299030;23;20245;-96
2021/09/28 03:41:49;;;;;;;3.97;1.03;;;11.00;99.90;;;;;;4996153;28;20211;-96
2021/09/28 03:44:21;;;;;;;1.93;0.97;;;11.00;99.90;;;;;;4990610;28;20233;-96
2021/09/28 03:47:02;;;;;;;3.57;1.17;;;10.90;99.90;;;;;;4995731;28;20271;-95
2021/09/28 03:55:29;;;;;;;3.93;1.10;;;11.00;99.90;;;;;;4995137;28;20203;-95
2021/09/28 04:06:41;;;;;;;3.00;1.23;;;11.20;99.90;;;;;;4991127;28;20203;-95
2021/09/28 04:09:15;;;;;;;3.97;0.90;;;11.20;99.90;;;;;;4992632;28;20221;-94
2021/09/28 04:12:04;;;;;;;3.23;1.30;;;11.30;99.90;;;;;;4976390;28;20207;-95
2021/09/28 04:14:36;;;;;;;3.90;1.40;;;11.30;99.90;;;;;;4984463;28;20301;-95
2021/09/28 04:17:08;;;;;;;1.97;1.10;;;11.40;99.90;;;;;;4993016;28;20223;-95
2021/09/28 04:19:41;;;;;;;2.70;1.17;;;11.40;99.90;;;;;;4992083;28;20203;-94
2021/09/28 04:22:12;;;;;;;2.27;1.00;;;11.50;99.90;;;;;;4990225;28;20203;-95
2021/09/28 04:27:39;;;;;;;2.37;1.10;;;11.50;99.90;;;;;;5039240;23;20242;-93
2021/09/28 04:30:14;;;;;;;2.47;1.10;;;11.50;99.90;;;;;;5017864;28;20250;-96
2021/09/28 04:32:47;;;;;;;4.87;1.10;;;11.50;99.90;;;;;;5000519;28;20195;-93
2021/09/28 04:35:19;;;;;;;5.70;1.10;;;11.50;99.90;;;;;;4993586;28;20266;-93
2021/09/28 04:37:51;;;;;;;3.50;1.10;;;11.50;99.90;;;;;;4991522;28;20233;-95
2021/09/28 04:40:22;;;;;;;4.63;1.30;;;11.50;99.90;;;;;;5001931;28;20194;-93
2021/09/28 04:45:33;;;;;;;3.80;1.33;;;11.50;99.90;;;;;;5015684;23;20238;-95
2021/09/28 04:48:06;;;;;;;4.57;1.47;;;11.40;99.90;;;;;;4990872;28;20203;-95
2021/09/28 04:50:40;;;;;;;4.17;1.20;;;11.40;99.90;;;;;;4982873;28;20264;-94
2021/09/28 04:53:11;;;;;;;2.97;1.20;;;11.40;99.90;;;;;;4982254;28;20206;-95
2021/09/28 04:55:44;;;;;;;6.00;1.40;;;11.40;99.90;;;;;;4977514;28;20239;-96
2021/09/28 05:01:06;;;;;;;6.50;1.80;;;11.40;99.90;;;;;;4982178;28;20229;-95
2021/09/28 05:11:36;;;;;;;7.30;1.90;;;11.50;99.90;;;;;;4972263;29;20228;-93
2021/09/28 05:14:10;;;;;;;3.83;1.20;;;11.50;99.90;;;;;;4966004;29;20275;-95
2021/09/28 05:16:46;;;;;;;3.30;1.30;;;11.60;99.90;;;;;;4964775;28;20242;-95
2021/09/28 05:19:20;;;;;;;10.50;1.77;;;11.60;99.90;;;;;;4971484;29;20235;-96
2021/09/28 05:21:51;;;;;;;4.97;1.30;;;11.60;99.90;;;;;;4971716;29;20208;-95
2021/09/28 05:24:24;;;;;;;3.97;1.30;;;11.60;99.90;;;;;;4961762;29;20223;-96
2021/09/28 05:26:55;;;;;;;6.07;1.50;;;11.70;99.90;;;;;;4963070;28;20721;-96
2021/09/28 05:29:25;;;;;;;7.57;1.60;;;11.70;99.90;;;;;;4963649;28;20670;-96
2021/09/28 05:31:59;;;;;;;4.73;1.53;;;11.70;99.90;;;;;;4962828;28;20207;-96
2021/09/28 05:34:34;;;;;;;8.57;1.40;;;11.80;99.90;;;;;;4962156;29;20211;-94
2021/09/28 05:37:07;;;;;;;5.50;1.40;;;11.80;99.90;;;;;;4962591;28;20242;-96
2021/09/28 05:39:38;;;;;;;7.57;1.57;;;11.70;99.90;;;;;;4963611;29;20215;-96
2021/09/28 05:42:11;;;;;;;5.07;1.57;;;11.80;99.90;;;;;;4963410;28;20204;-96
2021/09/28 05:44:43;;;;;;;5.10;1.30;;;11.70;99.90;;;;;;4963377;28;20228;-96
2021/09/28 05:47:20;;;;;;;7.10;1.40;;;11.70;99.90;;;;;;4962848;28;20215;-96
2021/09/28 05:49:52;;;;;;;5.00;1.40;;;11.80;99.90;;;;;;4962921;28;20234;-96
2021/09/28 05:52:24;;;;;;;3.57;1.20;;;11.80;99.90;;;;;;4963137;28;20212;-96
2021/09/28 05:54:57;;;;;;;6.60;1.50;;;11.80;99.90;;;;;;4962509;28;20239;-96
2021/09/28 05:57:29;;;;;;;5.90;1.40;;;11.80;99.90;;;;;;4962300;29;20203;-96
2021/09/28 06:00:03;;;;;;;9.10;1.50;;;11.90;99.90;;;;;;4961890;28;20248;-96
2021/09/28 06:02:39;;;;;;;7.37;1.20;;;11.90;99.90;;;;;;4962340;28;20234;-96
2021/09/28 06:05:16;;;;;;;4.70;1.60;;;12.00;99.90;;;;;;4961933;28;20298;-96
2021/09/28 06:07:48;;;;;;;5.53;1.60;;;12.00;99.90;;;;;;4962735;28;20267;-96
2021/09/28 06:10:20;;;;;;;9.10;1.67;;;12.10;99.90;;;;;;5087581;23;20249;-95
2021/09/28 06:12:53;;;;;;;5.87;1.37;;;12.00;99.90;;;;;;4981882;28;20207;-95
2021/09/28 06:15:25;;;;;;;9.60;1.63;;;12.00;99.90;;;;;;4982569;28;20273;-94
2021/09/28 06:17:59;;;;;;;6.57;1.30;;;11.90;99.90;;;;;;4981224;28;20218;-94
2021/09/28 06:20:32;;;;;;;4.43;1.07;;;12.00;99.90;;;;;;4982473;28;20522;-94
2021/09/28 06:23:03;;;;;;;7.60;1.50;;;12.00;99.90;;;;;;4981284;28;20215;-95
2021/09/28 06:25:35;;;;;;;8.03;1.37;;;12.00;99.90;;;;;;4639095;28;9999673;-95
2021/09/28 06:28:07;;;;;;;7.03;1.50;;;12.00;99.90;;;;;;4980995;28;20241;-95
2021/09/28 06:30:39;;;;;;;10.57;2.10;;;12.00;99.90;;;;;;4979945;28;20218;-93
2021/09/28 06:33:12;;;;;;;10.00;1.40;;;11.90;99.90;;;;;;4980343;28;20257;-94
2021/09/28 06:35:43;;;;;;;7.23;1.37;;;11.90;99.90;;;;;;4993728;28;20588;-94
2021/09/28 06:38:19;;;;;;;7.17;1.60;;;11.80;99.90;;;;;;4987774;28;20215;-94
2021/09/28 06:40:51;;;;;;;8.83;1.33;;;11.80;99.90;;;;;;4981004;28;20233;-94
2021/09/28 06:43:23;;;;;;;5.67;1.10;;;11.80;99.90;;;;;;4981101;28;20219;-95
2021/09/28 06:45:58;;;;;;;3.17;1.10;;;11.70;99.90;;;;;;4980066;28;20658;-91
2021/09/28 06:48:33;;;;;;;6.23;1.67;;;11.70;99.90;;;;;;4989795;28;20576;-95
2021/09/28 06:51:05;;;;;;;4.50;1.30;;;11.70;99.90;;;;;;4999904;28;20233;-95
2021/09/28 06:53:36;;;;;;;4.60;1.33;;;11.60;99.90;;;;;;4984361;28;20214;-95
2021/09/28 06:56:08;;;;;;;6.37;1.40;;;11.50;99.90;;;;;;4999575;28;20257;-96
2021/09/28 06:58:39;;;;;;;4.93;1.57;;;11.50;99.90;;;;;;4986479;28;20724;-95
2021/09/28 07:01:11;;;;;;;6.03;1.40;;;11.50;99.90;;;;;;4981035;28;20235;-95
2021/09/28 07:03:44;;;;;;;3.87;1.70;;;11.50;99.90;;;;;;5024446;28;20215;-96
2021/09/28 07:06:16;;;;;;;7.47;1.63;;;11.40;99.90;;;;;;4998016;28;20199;-94
2021/09/28 07:11:36;;;;;;;5.90;1.60;;;11.40;99.90;;;;;;5015734;23;20234;-95
2021/09/28 07:16:35;;;;;;;4.70;1.50;;;11.40;99.90;;;;;;4995372;28;20245;-93
2021/09/28 07:19:09;;;;;;;8.33;1.43;;;11.40;99.90;;;;;;4992827;28;20210;-95
2021/09/28 07:21:42;;;;;;;8.27;1.93;;;11.40;99.90;;;;;;4972284;28;20238;-96
2021/09/28 07:24:13;;;;;;;8.33;1.70;;;11.40;99.90;;;;;;4965469;28;20307;-93
2021/09/28 07:26:45;;;;;;;5.60;1.60;;;11.40;99.90;;;;;;4982407;28;20628;-94
2021/09/28 07:29:17;;;;;;;8.30;1.50;;;11.50;99.90;;;;;;4983217;28;20211;-94
2021/09/28 07:31:49;;;;;;;5.67;1.30;;;11.50;99.90;;;;;;4986440;28;20620;-94
2021/09/28 07:34:23;;;;;;;7.47;1.50;;;11.50;99.90;;;;;;4982723;28;20245;-94
2021/09/28 07:36:55;;;;;;;8.20;2.30;;;11.40;99.90;;;;;;4983869;28;20235;-94
2021/09/28 07:39:26;;;;;;;7.10;1.53;;;11.40;99.90;;;;;;4983814;28;20211;-94
2021/09/28 07:41:57;;;;;;;8.87;1.67;;;11.30;99.90;;;;;;4982212;28;20207;-93
2021/09/28 07:44:29;;;;;;;10.73;1.53;;;11.30;99.90;;;;;;4983692;28;20677;-94
2021/09/28 07:47:05;;;;;;;5.23;1.60;;;11.30;99.90;;;;;;4985252;28;20211;-94
2021/09/28 07:49:41;;;;;;;5.43;1.70;;;11.40;99.90;;;;;;4985595;28;20213;-94
2021/09/28 07:52:13;;;;;;;7.87;1.37;;;11.30;99.90;;;;;;4982425;28;20233;-94
2021/09/28 07:54:46;;;;;;;7.13;1.73;;;11.30;99.90;;;;;;4973637;28;20247;-94
2021/09/28 07:57:20;;;;;;;6.43;1.60;;;11.30;99.90;;;;;;4962471;28;20729;-93
2021/09/28 07:59:54;;;;;;;7.40;1.83;;;11.40;99.90;;;;;;4962095;28;20215;-95
2021/09/28 08:02:25;;;;;;;8.90;2.10;;;11.40;99.90;;;;;;4986157;28;20657;-94
2021/09/28 08:04:59;;;;;;;5.57;1.50;;;11.50;99.90;;;;;;4987678;28;20348;-95
2021/09/28 08:07:31;;;;;;;8.67;1.50;;;11.40;99.90;;;;;;4982651;28;20214;-95
2021/09/28 08:10:08;;;;;;;6.87;1.50;;;11.40;99.90;;;;;;4973093;28;20323;-95
2021/09/28 08:12:41;;;;;;;5.63;1.60;;;11.40;99.90;;;;;;4973900;28;20211;-93
2021/09/28 08:15:13;;;;;;;4.43;1.60;;;11.40;99.90;;;;;;4980131;28;20230;-94
2021/09/28 08:17:45;;;;;;;7.43;1.70;;;11.50;99.90;;;;;;4978638;28;20655;-92
2021/09/28 08:20:21;;;;;;;4.47;1.90;;;11.50;99.90;;;;;;4980413;28;20214;-93
2021/09/28 08:22:52;;;;;;;9.40;1.53;;;11.40;99.90;;;;;;4980047;28;20292;-92
2021/09/28 08:25:33;;;;;;;4.87;1.50;;;11.40;99.90;;;;;;4979631;28;20221;-93
2021/09/28 08:30:51;;;;;;;6.17;1.50;;;11.30;99.90;;;;;;4979342;28;20214;-94
2021/09/28 08:33:23;;;;;;;4.57;1.30;;;11.20;99.90;;;;;;4980076;28;20274;-93
2021/09/28 08:35:56;;;;;;;7.43;1.50;;;11.20;99.90;;;;;;4978860;28;20269;-94
2021/09/28 08:38:31;;;;;;;2.80;1.23;;;11.20;99.90;;;;;;4980276;28;20297;-93
2021/09/28 08:41:03;;;;;;;5.10;1.40;;;11.20;99.90;;;;;;4979572;28;20226;-93
2021/09/28 08:43:48;;;;;;;5.80;1.40;;;11.10;99.90;;;;;;4981231;28;20249;-95
2021/09/28 08:46:20;;;;;;;3.80;1.50;;;11.10;99.90;;;;;;4978745;28;20238;-94
2021/09/28 08:48:51;;;;;;;3.63;1.30;;;10.80;99.90;;;;;;4979920;28;20217;-94
2021/09/28 08:51:25;;;;;;;5.50;2.47;;;10.70;99.90;;;;;;4634748;28;9999660;-94
2021/09/28 08:53:57;;;;;;;5.67;1.93;;;10.70;99.90;;;;;;4978667;28;20225;-94
2021/09/28 08:56:30;;;;;;;8.10;1.63;;;10.70;99.90;;;;;;4981964;28;20206;-95
2021/09/28 08:59:05;;;;;;;7.07;1.60;;;10.60;99.90;;;;;;4972354;28;20210;-94
2021/09/28 09:01:39;;;;;;;7.73;2.07;;;10.60;99.90;;;;;;4998058;28;20692;-94
2021/09/28 09:04:30;;;;;;;6.70;1.83;;;10.50;99.90;;;;;;4985127;28;20669;-95
2021/09/28 09:07:22;;;;;;;4.53;1.47;;;10.50;99.90;;;;;;4983922;28;20210;-95
2021/09/28 09:09:53;;;;;;;4.00;1.63;;;10.60;99.90;;;;;;4982864;28;20207;-94
2021/09/28 09:12:36;;;;;;;5.10;1.60;;;10.60;99.90;;;;;;4988160;28;20231;-95
2021/09/28 09:15:26;;;;;;;5.37;1.27;;;10.60;99.90;;;;;;4985194;28;20221;-94
2021/09/28 09:18:01;;;;;;;5.27;1.50;;;10.60;99.90;;;;;;5002396;28;20295;-94
2021/09/28 09:20:36;;;;;;;5.63;1.40;;;10.60;99.90;;;;;;5005688;28;20194;-94
2021/09/28 09:23:25;;;;;;;12.13;1.80;;;10.60;99.90;;;;;;5003140;28;20264;-93
2021/09/28 09:26:02;;;;;;;5.87;1.40;;;10.60;99.90;;;;;;5005070;28;20225;-93
2021/09/28 09:28:36;;;;;;;3.63;1.10;;;10.60;99.90;;;;;;5013710;28;20256;-95
2021/09/28 09:31:31;;;;;;;4.80;2.07;;;10.60;99.90;;;;;;4990323;28;20245;-93
2021/09/28 09:34:13;;;;;;;3.90;1.07;;;10.70;99.90;;;;;;5000175;28;20206;-95
2021/09/28 09:36:45;;;;;;;3.50;1.80;;;10.70;99.90;;;;;;4975469;28;20230;-94
2021/09/28 09:39:18;;;;;;;7.57;2.40;;;10.70;99.90;;;;;;4984446;28;20211;-93
2021/09/28 09:42:05;;;;;;;5.10;1.53;;;10.70;99.90;;;;;;4982432;28;20222;-94
2021/09/28 09:44:37;;;;;;;5.50;1.27;;;10.60;99.90;;;;;;4981743;28;20242;-93
2021/09/28 09:47:08;;;;;;;3.03;1.10;;;10.70;99.90;;;;;;4982395;28;20242;-94
2021/09/28 09:49:39;;;;;;;7.37;1.23;;;10.70;99.90;;;;;;4980937;28;20207;-95
2021/09/28 09:52:11;;;;;;;4.37;1.20;;;10.70;99.90;;;;;;4982296;28;20222;-94
2021/09/28 09:54:46;;;;;;;6.70;1.77;;;10.70;99.90;;;;;;4981655;28;20658;-94
2021/09/28 09:57:18;;;;;;;4.13;1.30;;;10.70;99.90;;;;;;4982598;28;20280;-94
2021/09/28 09:59:50;;;;;;;4.90;1.40;;;10.70;99.90;;;;;;4984229;28;20207;-94
2021/09/28 10:02:24;;;;;;;2.83;1.13;;;10.80;99.90;;;;;;4984084;28;20203;-95
2021/09/28 10:05:00;;;;;;;2.67;1.43;;;10.80;99.90;;;;;;4985043;28;20211;-94
2021/09/28 10:07:30;;;;;;;3.03;1.00;;;10.80;99.90;;;;;;5004269;28;20237;-94
2021/09/28 10:10:04;;;;;;;8.30;1.57;;;10.70;99.90;;;;;;5003727;28;20260;-94
2021/09/28 10:12:38;;;;;;;5.67;1.97;;;10.70;99.90;;;;;;5004604;28;20218;-93
2021/09/28 10:15:13;;;;;;;3.30;1.00;;;10.70;99.90;;;;;;5004163;28;20222;-94
2021/09/28 10:17:45;;;;;;;5.27;1.20;;;10.70;99.90;;;;;;5019449;28;20228;-93
2021/09/28 10:20:32;;;;;;;5.87;1.00;;;10.60;99.90;;;;;;5019405;28;20179;-93
2021/09/28 10:23:21;;;;;;;5.07;1.60;;;10.60;99.90;;;;;;5005079;28;20184;-93
2021/09/28 10:26:14;;;;;;;5.97;1.20;;;10.70;99.90;;;;;;4999232;28;20195;-94
2021/09/28 10:28:45;;;;;;;4.33;1.10;;;10.60;99.90;;;;;;5000027;28;20227;-92
2021/09/28 10:31:33;;;;;;;2.73;1.20;;;10.70;99.90;;;;;;4998965;28;20195;-91
2021/09/28 10:34:05;;;;;;;6.23;1.23;;;10.70;99.90;;;;;;4997980;28;20210;-93
2021/09/28 10:36:53;;;;;;;3.10;0.87;;;10.70;99.90;;;;;;4989435;28;20259;-92
2021/09/28 10:39:45;;;;;;;3.67;1.20;;;10.70;99.90;;;;;;4985895;28;20243;-91
2021/09/28 10:42:52;;;;;;;3.07;1.00;;;10.70;99.90;;;;;;4986845;28;20237;-91
2021/09/28 10:45:46;;;;;;;4.90;1.23;;;10.70;99.90;;;;;;4980274;28;20657;-92
2021/09/28 10:48:33;;;;;;;4.40;1.10;;;10.70;99.90;;;;;;4980855;28;20214;-93
2021/09/28 10:51:15;;;;;;;2.37;0.90;;;10.70;99.90;;;;;;4966061;28;20207;-93
2021/09/28 10:53:50;;;;;;;5.50;1.10;;;10.70;99.90;;;;;;4961220;28;20278;-93
2021/09/28 10:56:24;;;;;;;2.77;0.90;;;10.70;99.90;;;;;;4961215;28;20238;-94
2021/09/28 10:59:01;;;;;;;4.73;1.17;;;10.80;99.90;;;;;;4959631;29;20305;-93
2021/09/28 11:01:34;;;;;;;4.50;1.20;;;10.70;99.90;;;;;;4960066;28;20223;-93
2021/09/28 11:04:15;;;;;;;3.93;1.10;;;10.70;99.90;;;;;;4972918;28;20207;-95
2021/09/28 11:07:04;;;;;;;4.80;0.90;;;10.70;99.90;;;;;;4980902;28;20287;-94
2021/09/28 11:09:50;;;;;;;3.73;1.10;;;10.70;99.90;;;;;;4980113;28;20217;-94
2021/09/28 11:12:26;;;;;;;3.63;1.03;;;10.70;99.90;;;;;;4988868;28;20201;-94
2021/09/28 11:15:03;;;;;;;3.63;0.87;;;10.80;99.90;;;;;;4999252;28;20232;-94
2021/09/28 11:17:36;;;;;;;2.40;0.80;;;10.80;99.90;;;;;;4998795;28;20214;-93
2021/09/28 11:20:21;;;;;;;3.03;0.90;;;10.80;99.90;;;;;;4999174;28;20210;-92
2021/09/28 11:22:57;;;;;;;3.53;0.90;;;10.80;99.90;;;;;;5001159;28;20233;-92
2021/09/28 11:25:28;;;;;;;3.80;0.87;;;10.90;99.90;;;;;;4998210;28;20206;-92
2021/09/28 11:28:03;;;;;;;1.77;0.60;;;10.80;99.90;;;;;;5001407;28;20309;-93
2021/09/28 11:30:39;;;;;;;1.97;0.83;;;10.90;99.90;;;;;;4993670;28;20203;-93
2021/09/28 11:33:12;;;;;;;2.80;0.90;;;10.80;99.90;;;;;;4983105;28;20206;-92
2021/09/28 11:35:57;;;;;;;2.53;0.93;;;10.90;99.90;;;;;;4978966;28;20270;-92
2021/09/28 11:38:29;;;;;;;2.23;0.93;;;11.00;99.90;;;;;;4983081;28;20235;-92
2021/09/28 11:41:02;;;;;;;6.80;1.13;;;11.00;99.90;;;;;;4995851;28;20217;-92
2021/09/28 11:43:36;;;;;;;4.20;1.00;;;11.10;99.90;;;;;;4998281;28;20231;-93
2021/09/28 11:46:13;;;;;;;1.30;0.70;;;11.10;99.90;;;;;;4993439;28;20210;-94
2021/09/28 11:48:47;;;;;;;3.30;0.90;;;11.10;99.90;;;;;;5003426;28;20217;-94
2021/09/28 11:51:23;;;;;;;5.90;0.97;;;11.10;99.90;;;;;;4999979;28;20214;-95
2021/09/28 11:53:57;;;;;;;2.97;0.80;;;11.10;99.90;;;;;;4979936;28;20226;-94
2021/09/28 11:56:30;;;;;;;5.70;1.00;;;11.10;99.90;;;;;;4979678;28;20258;-93
2021/09/28 11:59:05;;;;;;;4.67;1.23;;;11.10;99.90;;;;;;4978364;28;20238;-94
2021/09/28 12:01:43;;;;;;;7.13;0.93;;;11.20;99.90;;;;;;4979708;28;20270;-94
2021/09/28 12:04:21;;;;;;;3.13;0.73;;;11.20;99.90;;;;;;4978200;28;20223;-95
2021/09/28 12:07:03;;;;;;;2.57;0.83;;;11.20;99.90;;;;;;4979207;28;20257;-94
2021/09/28 12:09:57;;;;;;;1.73;0.70;;;11.20;99.90;;;;;;4978467;28;20217;-95
2021/09/28 12:12:29;;;;;;;1.13;0.50;;;11.20;99.90;;;;;;4959958;28;20219;-95
2021/09/28 12:15:08;;;;;;;4.67;1.00;;;11.30;99.90;;;;;;4977451;28;20238;-94
2021/09/28 12:17:42;;;;;;;4.40;1.30;;;11.30;99.90;;;;;;4976850;28;20209;-93
2021/09/28 12:20:16;;;;;;;2.80;0.80;;;11.30;99.90;;;;;;4959069;28;20270;-94
2021/09/28 12:22:49;;;;;;;2.13;0.70;;;11.30;99.90;;;;;;4973360;28;20200;-93
2021/09/28 12:25:24;;;;;;;3.87;0.80;;;11.20;99.90;;;;;;4957207;29;20203;-93
2021/09/28 12:27:58;;;;;;;2.77;1.10;;;11.30;99.90;;;;;;4958844;28;20214;-93
2021/09/28 12:30:33;;;;;;;2.37;0.80;;;11.30;99.90;;;;;;4969590;28;20210;-93
2021/09/28 12:33:07;;;;;;;1.57;0.60;;;11.30;99.90;;;;;;4977365;28;20781;-92
2021/09/28 12:35:39;;;;;;;4.93;1.43;;;11.30;99.90;;;;;;4977476;28;20241;-92
2021/09/28 12:38:13;;;;;;;4.03;0.90;;;11.30;99.90;;;;;;4991208;28;20210;-93
2021/09/28 12:40:45;;;;;;;4.20;1.03;;;11.30;99.90;;;;;;4998188;28;20281;-94
2021/09/28 12:43:18;;;;;;;1.87;0.80;;;11.30;99.90;;;;;;4980730;28;20206;-92
2021/09/28 12:45:52;;;;;;;1.57;0.90;;;11.30;99.90;;;;;;4977779;28;20659;-93
2021/09/28 12:48:35;;;;;;;3.83;1.20;;;11.30;99.90;;;;;;4981441;28;20234;-95
2021/09/28 12:51:09;;;;;;;4.37;1.10;;;11.30;99.90;;;;;;4967448;28;20223;-95
2021/09/28 12:53:42;;;;;;;6.97;1.00;;;11.30;99.90;;;;;;4962395;28;20213;-94
2021/09/28 12:56:15;;;;;;;2.60;0.80;;;11.30;99.90;;;;;;4975036;28;20211;-94
2021/09/28 12:58:47;;;;;;;3.07;0.90;;;11.20;99.90;;;;;;4981097;28;20261;-94
2021/09/28 13:01:19;;;;;;;1.53;0.80;;;11.20;99.90;;;;;;4979848;28;20247;-95
2021/09/28 13:03:57;;;;;;;1.00;0.67;;;11.20;99.90;;;;;;4980255;28;20218;-94
2021/09/28 13:06:32;;;;;;;2.57;1.10;;;11.20;99.90;;;;;;4980668;28;20198;-94
2021/09/28 13:09:07;;;;;;;9.47;8.53;;;11.20;99.90;;;;;;4982165;28;20239;-95
2021/09/28 13:11:38;;;;;;;2.83;1.00;;;11.20;99.90;;;;;;4981532;28;20211;-94
2021/09/28 13:14:10;;;;;;;3.17;0.90;;;11.20;99.90;;;;;;4981455;28;20207;-96
2021/09/28 13:16:41;;;;;;;2.10;0.70;;;11.10;99.90;;;;;;4988061;28;20217;-93
2021/09/28 13:19:15;;;;;;;5.33;1.07;;;11.10;99.90;;;;;;5001298;28;20832;-92
2021/09/28 13:22:02;;;;;;;4.63;1.20;;;11.10;99.90;;;;;;4985912;28;20285;-93
2021/09/28 13:24:33;;;;;;;3.57;0.80;;;11.10;99.90;;;;;;4989644;28;20214;-93
2021/09/28 13:27:07;;;;;;;1.77;0.73;;;11.10;99.90;;;;;;4981901;28;20266;-93
2021/09/28 13:29:44;;;;;;;1.13;0.70;;;11.00;99.90;;;;;;4981990;28;20282;-93
2021/09/28 13:32:16;;;;;;;3.07;2.70;;;11.10;99.90;;;;;;4981654;28;20231;-94
2021/09/28 13:34:51;;;;;;;3.43;1.70;;;11.10;99.90;;;;;;4981127;28;20213;-94
2021/09/28 13:37:26;;;;;;;4.37;0.90;;;11.00;99.90;;;;;;4979885;28;20214;-93
2021/09/28 13:39:57;;;;;;;3.33;1.00;;;11.10;99.90;;;;;;4982696;28;20233;-93
2021/09/28 13:42:29;;;;;;;2.53;0.87;;;11.10;99.90;;;;;;4983563;28;20203;-93
2021/09/28 13:45:00;;;;;;;1.37;0.50;;;11.10;99.90;;;;;;4984861;28;20250;-94
2021/09/28 13:47:32;;;;;;;3.83;0.93;;;11.10;99.90;;;;;;4982247;28;20242;-95
2021/09/28 13:50:19;;;;;;;2.93;0.90;;;11.10;99.90;;;;;;4999569;28;20289;-93
2021/09/28 13:52:51;;;;;;;3.37;0.70;;;11.20;99.90;;;;;;4999918;28;20216;-94
2021/09/28 13:55:23;;;;;;;3.03;0.80;;;11.20;99.90;;;;;;4998234;28;20227;-94
2021/09/28 13:57:55;;;;;;;1.93;0.80;;;11.20;99.90;;;;;;5011330;28;20238;-93
2021/09/28 14:00:26;;;;;;;3.07;1.00;;;11.30;99.90;;;;;;5004313;28;20249;-93
2021/09/28 14:02:58;;;;;;;5.10;1.00;;;11.20;99.90;;;;;;5001681;28;20747;-94
2021/09/28 14:05:32;;;;;;;2.10;0.67;;;11.30;99.90;;;;;;5002905;28;20297;-94
2021/09/28 14:08:04;;;;;;;3.20;1.20;;;11.30;99.90;;;;;;5002845;28;20457;-93
2021/09/28 14:10:40;;;;;;;3.87;1.20;;;11.30;99.90;;;;;;5001125;28;20243;-93
2021/09/28 14:13:13;;;;;;;3.00;1.00;;;11.40;99.90;;;;;;5546282;23;20223;-93
2021/09/28 14:15:47;;;;;;;3.43;0.87;;;11.40;99.90;;;;;;5086634;23;20753;-92
2021/09/28 14:18:19;;;;;;;3.70;1.33;;;11.50;99.90;;;;;;4985443;28;20246;-93
2021/09/28 14:20:56;;;;;;;4.00;1.10;;;11.50;99.90;;;;;;4995477;28;20246;-93
2021/09/28 14:23:27;;;;;;;3.30;0.90;;;11.50;99.90;;;;;;4997591;28;20222;-92
2021/09/28 14:25:58;;;;;;;2.43;0.90;;;11.60;99.90;;;;;;4992014;28;20262;-94
2021/09/28 14:28:32;;;;;;;2.77;1.00;;;11.60;99.90;;;;;;4992672;28;20234;-95
2021/09/28 14:31:05;;;;;;;2.67;0.90;;;11.60;99.90;;;;;;4993981;28;20210;-94
2021/09/28 14:33:37;;;;;;;3.13;0.97;;;11.60;99.90;;;;;;4994407;28;20242;-94
2021/09/28 14:36:13;;;;;;;16.43;2.07;;;11.60;99.90;;;;;;4990153;28;20207;-94
2021/09/28 14:41:43;;;;;;;6.73;1.10;;;11.60;99.90;;;;;;4986246;28;20231;-94
2021/09/28 14:50:21;;;;;;;5.90;1.27;;;11.40;99.90;;;;;;5006151;28;20206;-94
2021/09/28 14:52:55;;;;;;;5.60;1.17;;;11.40;99.90;;;;;;5010245;28;20210;-93
2021/09/28 14:55:29;;;;;;;3.87;1.07;;;11.40;99.90;;;;;;5009745;28;20216;-93
2021/09/28 14:58:00;;;;;;;2.63;1.17;;;11.40;99.90;;;;;;4997605;28;20218;-93
2021/09/28 15:00:32;;;;;;;2.73;1.10;;;11.40;99.90;;;;;;5004373;28;20269;-93
2021/09/28 15:03:04;;;;;;;5.03;1.60;;;11.40;99.90;;;;;;4986781;28;20561;-94
2021/09/28 15:08:35;;;;;;;3.13;1.20;;;11.30;99.90;;;;;;4980306;28;20219;-93
2021/09/28 15:11:08;;;;;;;3.87;1.23;;;11.40;99.90;;;;;;4968560;28;20634;-92
2021/09/28 15:13:42;;;;;;;4.77;1.20;;;11.30;99.90;;;;;;4975200;28;20207;-92
2021/09/28 15:16:16;;;;;;;4.73;1.30;;;11.40;99.90;;;;;;4987331;28;20207;-93
2021/09/28 15:18:51;;;;;;;5.40;1.40;;;11.40;99.90;;;;;;4989756;28;20593;-92
2021/09/28 15:21:22;;;;;;;10.07;1.80;;;11.50;99.90;;;;;;4980597;28;20673;-92